Time;durP1;ratioP1;P1;durP2;ratioP2;P2;SDS_P1;SDS_P2;PMS_P1;PMS_P2;Temp;Humidity;BMP_temperature;BMP_pressure;BME280_temperature;BME280_humidity;BME280_pressure;Samples;Min_cycle;Max_cycle;Signal;HPM_P1;HPM_P2
2021/05/18 00:01:34;;;;;;;8.15;5.90;;;12.40;91.60;;;;;;5013442;28;20046;-92
2021/05/18 00:04:01;;;;;;;7.80;5.63;;;12.30;91.70;;;;;;5013141;28;20041;-92
2021/05/18 00:06:26;;;;;;;8.90;6.00;;;12.30;91.80;;;;;;5013154;28;20060;-92
2021/05/18 00:11:47;;;;;;;8.70;5.85;;;12.30;91.80;;;;;;5013492;28;20073;-91
2021/05/18 00:14:21;;;;;;;7.82;5.75;;;12.30;91.60;;;;;;5013342;28;20057;-90
2021/05/18 00:16:47;;;;;;;9.70;5.95;;;12.20;91.50;;;;;;5013473;28;20053;-91
2021/05/18 00:19:14;;;;;;;7.80;5.28;;;12.20;91.60;;;;;;5012272;28;20049;-91
2021/05/18 00:21:41;;;;;;;7.40;5.40;;;12.20;91.50;;;;;;5013418;28;20046;-91
2021/05/18 00:24:07;;;;;;;9.20;5.85;;;12.20;91.50;;;;;;5012945;28;20073;-92
2021/05/18 00:26:36;;;;;;;8.43;6.07;;;12.10;91.40;;;;;;5016281;28;20042;-92
2021/05/18 00:29:03;;;;;;;9.00;6.40;;;12.10;91.20;;;;;;5016585;28;20054;-92
2021/05/18 00:31:29;;;;;;;8.43;6.05;;;12.10;91.50;;;;;;5016947;28;20053;-91
2021/05/18 00:33:54;;;;;;;9.00;5.78;;;12.00;91.60;;;;;;5015956;28;20041;-92
2021/05/18 00:36:20;;;;;;;9.40;6.07;;;12.00;91.60;;;;;;5016609;28;20050;-91
2021/05/18 00:38:46;;;;;;;10.68;6.57;;;12.00;91.60;;;;;;5016629;28;20052;-91
2021/05/18 00:41:12;;;;;;;8.70;6.13;;;11.90;91.50;;;;;;5015834;28;20053;-90
2021/05/18 00:43:39;;;;;;;8.35;5.80;;;11.90;91.60;;;;;;5016491;28;20092;-91
2021/05/18 00:46:07;;;;;;;8.07;6.00;;;11.90;91.50;;;;;;5016053;28;20085;-91
2021/05/18 00:48:34;;;;;;;10.63;6.65;;;11.80;91.40;;;;;;5015940;28;20045;-92
2021/05/18 00:51:10;;;;;;;8.85;6.10;;;11.80;91.20;;;;;;5015617;28;20081;-90
2021/05/18 00:53:38;;;;;;;10.82;6.70;;;11.80;91.50;;;;;;5016491;28;20092;-91
2021/05/18 00:56:19;;;;;;;11.05;6.40;;;11.70;91.30;;;;;;5015798;28;20489;-92
2021/05/18 00:58:45;;;;;;;9.88;6.88;;;11.70;91.20;;;;;;5016094;28;20064;-91
2021/05/18 01:01:18;;;;;;;8.80;6.13;;;11.60;91.30;;;;;;5015867;28;20050;-92
2021/05/18 01:03:45;;;;;;;8.47;6.00;;;11.60;91.30;;;;;;5016250;28;20134;-92
2021/05/18 01:06:28;;;;;;;8.60;5.95;;;11.60;91.40;;;;;;5015676;28;20076;-92
2021/05/18 01:08:55;;;;;;;9.60;6.10;;;11.50;91.30;;;;;;5015852;28;20165;-92
2021/05/18 01:11:29;;;;;;;10.25;6.82;;;11.50;91.20;;;;;;5016292;28;20297;-91
2021/05/18 01:13:59;;;;;;;10.63;6.43;;;11.50;91.30;;;;;;5016020;28;20058;-91
2021/05/18 01:16:27;;;;;;;9.23;6.55;;;11.50;91.40;;;;;;5015746;28;20045;-91
2021/05/18 01:18:53;;;;;;;10.90;6.68;;;11.40;91.40;;;;;;5015719;28;20076;-91
2021/05/18 01:21:19;;;;;;;9.90;6.93;;;11.40;91.40;;;;;;5016306;28;20467;-92
2021/05/18 01:23:45;;;;;;;9.65;6.53;;;11.30;91.40;;;;;;5008135;28;20077;-90
2021/05/18 01:26:13;;;;;;;9.65;6.97;;;11.30;91.20;;;;;;5008230;28;20057;-93
2021/05/18 01:28:39;;;;;;;8.90;6.45;;;11.30;91.20;;;;;;5010601;28;20053;-91
2021/05/18 01:31:06;;;;;;;8.57;6.05;;;11.30;91.20;;;;;;5004132;28;20046;-92
2021/05/18 01:33:32;;;;;;;9.25;6.70;;;11.30;91.10;;;;;;5008837;28;20563;-90
2021/05/18 01:36:01;;;;;;;9.88;6.90;;;11.20;91.20;;;;;;5009020;28;20050;-91
2021/05/18 01:39:08;;;;;;;9.65;6.82;;;11.20;91.40;;;;;;5014020;28;20187;-91
2021/05/18 01:44:06;;;;;;;9.57;7.35;;;11.10;91.60;;;;;;5014203;28;20046;-90
2021/05/18 01:46:33;;;;;;;8.35;6.43;;;11.10;91.90;;;;;;5014976;28;20053;-91
2021/05/18 01:49:05;;;;;;;9.50;6.97;;;11.10;91.80;;;;;;5014831;28;20069;-91
2021/05/18 01:51:34;;;;;;;10.38;7.15;;;11.00;91.80;;;;;;5014846;28;20062;-91
2021/05/18 01:54:09;;;;;;;9.93;6.93;;;11.00;92.00;;;;;;5014723;28;20050;-91
2021/05/18 01:59:14;;;;;;;9.70;7.05;;;10.90;91.80;;;;;;5014625;28;20060;-91
2021/05/18 02:01:42;;;;;;;8.50;6.82;;;10.90;92.10;;;;;;5010093;28;20058;-90
2021/05/18 02:04:18;;;;;;;10.55;6.70;;;10.90;92.00;;;;;;5010084;28;20108;-90
2021/05/18 02:06:44;;;;;;;8.85;6.22;;;10.90;91.80;;;;;;4995391;28;20047;-91
2021/05/18 02:09:11;;;;;;;10.05;6.63;;;10.90;91.70;;;;;;5008357;28;20097;-90
2021/05/18 02:11:36;;;;;;;8.50;6.40;;;10.80;91.70;;;;;;5014330;28;20401;-91
2021/05/18 02:14:06;;;;;;;9.85;6.80;;;10.80;91.70;;;;;;5014446;28;20062;-91
2021/05/18 02:16:35;;;;;;;9.40;6.90;;;10.80;91.80;;;;;;5014899;28;20045;-91
2021/05/18 02:27:01;;;;;;;7.90;6.10;;;10.60;91.80;;;;;;5013866;28;20049;-91
2021/05/18 02:29:27;;;;;;;9.05;6.63;;;10.60;91.70;;;;;;5014700;28;20557;-91
2021/05/18 02:31:55;;;;;;;9.30;6.53;;;10.50;91.80;;;;;;5014404;28;20046;-92
2021/05/18 02:34:21;;;;;;;9.10;6.28;;;10.50;91.70;;;;;;5014256;28;20073;-92
2021/05/18 02:36:46;;;;;;;8.43;6.43;;;10.50;91.70;;;;;;5014618;28;20518;-92
2021/05/18 02:39:12;;;;;;;9.50;6.53;;;10.40;91.70;;;;;;5014719;28;20129;-92
2021/05/18 02:41:38;;;;;;;10.32;6.03;;;10.40;91.80;;;;;;5014207;28;20489;-93
2021/05/18 02:44:09;;;;;;;8.73;6.22;;;10.40;91.80;;;;;;5014138;28;20086;-92
2021/05/18 02:49:22;;;;;;;10.25;6.43;;;10.30;92.00;;;;;;5014364;28;20115;-92
2021/05/18 02:51:48;;;;;;;9.48;6.78;;;10.30;91.90;;;;;;5014936;28;20432;-92
2021/05/18 02:54:17;;;;;;;8.07;6.03;;;10.30;91.90;;;;;;5014111;28;20104;-91
2021/05/18 02:59:15;;;;;;;8.60;5.78;;;10.20;92.30;;;;;;5013852;28;20056;-93
2021/05/18 03:01:44;;;;;;;9.63;6.47;;;10.20;92.30;;;;;;5014115;28;20050;-93
2021/05/18 03:04:10;;;;;;;9.95;6.78;;;10.10;92.40;;;;;;5013941;28;20084;-93
2021/05/18 03:06:37;;;;;;;10.25;6.97;;;10.10;92.40;;;;;;5014477;28;20050;-93
2021/05/18 03:09:09;;;;;;;9.13;6.50;;;10.10;92.40;;;;;;5013963;28;20387;-92
2021/05/18 03:11:36;;;;;;;11.57;6.78;;;10.10;92.50;;;;;;5014050;28;20504;-92
2021/05/18 03:14:03;;;;;;;8.38;6.10;;;10.10;92.40;;;;;;5013846;28;20046;-93
2021/05/18 03:16:29;;;;;;;8.82;6.35;;;10.00;92.40;;;;;;5014052;28;20061;-93
2021/05/18 03:18:55;;;;;;;9.52;6.63;;;10.00;92.50;;;;;;5014190;28;20050;-92
2021/05/18 03:21:21;;;;;;;8.10;6.03;;;10.00;92.50;;;;;;5013996;28;20050;-92
2021/05/18 03:23:46;;;;;;;8.05;5.80;;;9.90;92.40;;;;;;5013819;28;20509;-92
2021/05/18 03:26:12;;;;;;;9.07;6.53;;;9.90;92.30;;;;;;5013639;28;20072;-92
2021/05/18 03:28:38;;;;;;;9.25;6.75;;;9.90;92.50;;;;;;5014206;28;20046;-91
2021/05/18 03:36:14;;;;;;;9.23;6.25;;;9.80;92.50;;;;;;5013780;28;20049;-92
2021/05/18 03:38:45;;;;;;;10.30;6.38;;;9.80;92.60;;;;;;5013918;28;20057;-92
2021/05/18 03:41:15;;;;;;;8.57;6.15;;;9.80;92.50;;;;;;5013882;28;20054;-92
2021/05/18 03:52:20;;;;;;;9.90;6.60;;;9.60;92.40;;;;;;5013978;28;20050;-92
2021/05/18 03:54:53;;;;;;;8.07;6.13;;;9.50;92.40;;;;;;5013929;28;20057;-92
2021/05/18 04:21:43;;;;;;;10.43;6.80;;;9.40;92.80;;;;;;5017383;28;20053;-93
2021/05/18 04:38:35;;;;;;;8.95;6.68;;;9.30;92.60;;;;;;5017269;28;20073;-92
2021/05/18 04:41:01;;;;;;;9.15;6.93;;;9.30;92.30;;;;;;5016997;28;20050;-93
2021/05/18 05:06:59;;;;;;;12.50;7.97;;;9.40;92.30;;;;;;5000905;28;20510;-91
2021/05/18 05:14:35;;;;;;;10.20;7.38;;;9.40;92.20;;;;;;4997874;28;20050;-92
2021/05/18 05:17:01;;;;;;;13.07;8.90;;;9.40;92.20;;;;;;5006955;28;20058;-92
2021/05/18 05:19:28;;;;;;;9.30;7.25;;;9.40;92.30;;;;;;5015079;28;20145;-91
2021/05/18 05:21:56;;;;;;;10.98;7.90;;;9.40;92.10;;;;;;5014854;28;20077;-92
2021/05/18 05:24:22;;;;;;;12.93;8.32;;;9.50;92.30;;;;;;5015188;28;20058;-92
2021/05/18 05:26:48;;;;;;;10.93;8.02;;;9.50;92.20;;;;;;5014897;28;20071;-92
2021/05/18 05:29:15;;;;;;;10.52;7.38;;;9.50;92.30;;;;;;5013981;28;20048;-92
2021/05/18 05:31:42;;;;;;;9.80;7.45;;;9.50;92.10;;;;;;5015108;28;20433;-92
2021/05/18 05:34:08;;;;;;;9.80;7.43;;;9.60;92.20;;;;;;5013967;28;20053;-92
2021/05/18 05:36:37;;;;;;;9.88;7.45;;;9.60;92.10;;;;;;5015478;28;20042;-93
2021/05/18 05:39:09;;;;;;;10.70;7.50;;;9.60;92.00;;;;;;5015148;28;20520;-90
2021/05/18 05:41:35;;;;;;;12.10;8.13;;;9.60;92.00;;;;;;5015213;28;20125;-88
2021/05/18 05:44:01;;;;;;;10.65;7.93;;;9.60;92.00;;;;;;5014520;28;20069;-90
2021/05/18 05:46:26;;;;;;;10.85;8.10;;;9.70;92.30;;;;;;5014870;28;20478;-85
2021/05/18 05:48:53;;;;;;;10.75;7.78;;;9.70;92.30;;;;;;5014718;28;20084;-85
2021/05/18 05:51:24;;;;;;;9.45;7.40;;;9.70;92.20;;;;;;5013920;28;20052;-83
2021/05/18 05:53:51;;;;;;;12.80;8.90;;;9.70;92.20;;;;;;5014889;28;20073;-84
2021/05/18 05:56:18;;;;;;;9.77;7.30;;;9.70;92.10;;;;;;5014358;28;20049;-83
2021/05/18 05:58:44;;;;;;;10.10;7.78;;;9.80;92.00;;;;;;5013544;28;20568;-89
2021/05/18 06:01:10;;;;;;;10.50;7.50;;;9.80;92.10;;;;;;5014488;28;20092;-88
2021/05/18 06:03:36;;;;;;;9.88;8.07;;;9.80;92.00;;;;;;5014668;28;20046;-89
2021/05/18 06:06:02;;;;;;;10.63;7.70;;;9.80;92.10;;;;;;5008468;28;20099;-89
2021/05/18 06:08:28;;;;;;;12.07;8.98;;;9.80;92.10;;;;;;5009310;28;20145;-89
2021/05/18 06:10:57;;;;;;;9.93;7.65;;;9.90;92.30;;;;;;5009723;28;20058;-88
2021/05/18 06:45:42;;;;;;;12.53;9.17;;;10.30;91.90;;;;;;5013631;28;20077;-88
2021/05/18 06:46:23;;;;;;;15.90;10.43;;;10.30;91.80;;;;;;5009965;28;20042;-88
2021/05/18 06:48:56;;;;;;;14.85;10.18;;;10.30;92.00;;;;;;5005094;28;20046;-88
2021/05/18 06:51:23;;;;;;;13.43;9.57;;;10.40;92.00;;;;;;5009659;28;20057;-90
2021/05/18 06:53:50;;;;;;;13.93;10.50;;;10.40;91.90;;;;;;5012002;28;20489;-87
2021/05/18 06:56:16;;;;;;;17.48;10.95;;;10.40;92.00;;;;;;5008855;28;20122;-88
2021/05/18 07:01:08;;;;;;;14.85;10.57;;;10.50;92.00;;;;;;5012268;28;20493;-88
2021/05/18 07:11:00;;;;;;;13.57;10.13;;;10.60;92.10;;;;;;5013059;28;20104;-88
2021/05/18 07:13:26;;;;;;;15.15;10.45;;;10.70;92.50;;;;;;5012573;28;20441;-87
2021/05/18 07:15:52;;;;;;;16.40;10.90;;;10.80;92.10;;;;;;5011656;28;20057;-88
2021/05/18 07:18:20;;;;;;;12.85;9.60;;;10.90;92.20;;;;;;5012951;28;20056;-87
2021/05/18 07:20:45;;;;;;;15.05;10.23;;;11.00;92.20;;;;;;5013201;28;20406;-87
2021/05/18 07:23:14;;;;;;;18.98;10.02;;;11.00;92.20;;;;;;5012303;28;20087;-87
2021/05/18 07:25:40;;;;;;;18.17;11.20;;;11.10;92.00;;;;;;5012485;28;20042;-86
2021/05/18 07:28:07;;;;;;;14.40;10.07;;;11.10;91.90;;;;;;5011560;28;20061;-88
2021/05/18 07:30:38;;;;;;;13.95;9.65;;;11.20;91.90;;;;;;5013075;28;20127;-88
2021/05/18 07:33:03;;;;;;;12.77;9.30;;;11.30;91.80;;;;;;5012718;28;20056;-88
2021/05/18 07:35:29;;;;;;;11.40;9.10;;;11.30;91.70;;;;;;5012302;28;20037;-90
2021/05/18 07:37:55;;;;;;;11.20;8.32;;;11.40;91.60;;;;;;5012894;28;20050;-89
2021/05/18 07:40:21;;;;;;;12.18;8.02;;;11.50;91.50;;;;;;5013000;28;20379;-90
2021/05/18 07:42:51;;;;;;;11.95;8.07;;;11.50;91.30;;;;;;5012803;28;20046;-90
2021/05/18 07:45:25;;;;;;;10.68;8.10;;;11.50;91.30;;;;;;5012747;28;20057;-91
2021/05/18 07:47:52;;;;;;;11.48;8.32;;;11.60;91.20;;;;;;5013044;28;20053;-89
2021/05/18 07:50:26;;;;;;;13.38;8.60;;;11.60;91.10;;;;;;5012925;28;20041;-90
2021/05/18 08:06:38;;;;;;;10.85;7.10;;;12.00;90.60;;;;;;4992951;28;20074;-86
2021/05/18 08:09:07;;;;;;;11.70;6.93;;;12.10;90.50;;;;;;5011500;28;20446;-85
2021/05/18 08:11:33;;;;;;;9.15;6.13;;;12.10;90.30;;;;;;5011328;28;20409;-84
2021/05/18 08:13:59;;;;;;;9.35;6.07;;;12.20;89.90;;;;;;5012469;28;20053;-84
2021/05/18 08:16:56;;;;;;;8.90;5.70;;;12.30;89.10;;;;;;5009682;28;20481;-85
2021/05/18 10:35:49;;;;;;;4.40;2.40;;;15.00;77.50;;;;;;5013784;28;20147;-84
2021/05/18 10:38:22;;;;;;;4.13;2.17;;;15.10;77.10;;;;;;5007180;28;20050;-84
2021/05/18 10:40:49;;;;;;;4.38;2.58;;;15.10;76.40;;;;;;4995466;28;20058;-84
2021/05/18 10:43:28;;;;;;;4.15;2.58;;;15.10;75.80;;;;;;5011518;28;20054;-84
2021/05/18 10:45:55;;;;;;;4.60;2.83;;;15.20;76.10;;;;;;5004135;28;20069;-85
2021/05/18 10:48:36;;;;;;;5.63;3.20;;;15.20;78.10;;;;;;4994052;28;20418;-85
2021/05/18 10:51:43;;;;;;;5.82;3.38;;;15.20;76.60;;;;;;4993956;28;20064;-85
2021/05/18 10:54:17;;;;;;;6.45;3.92;;;15.20;77.80;;;;;;4992562;28;20050;-85
2021/05/18 10:56:54;;;;;;;5.07;3.63;;;15.20;78.90;;;;;;4994130;28;20500;-84
2021/05/18 10:59:24;;;;;;;7.68;3.97;;;15.20;79.70;;;;;;5012699;28;20470;-85
2021/05/18 11:02:04;;;;;;;5.60;4.00;;;15.10;79.70;;;;;;5013602;28;20069;-86
2021/05/18 11:04:33;;;;;;;6.13;4.30;;;15.20;80.80;;;;;;5013173;28;20584;-85
2021/05/18 11:07:01;;;;;;;6.38;4.50;;;15.20;81.00;;;;;;5011218;28;20058;-85
2021/05/18 11:09:28;;;;;;;7.60;5.00;;;15.20;80.60;;;;;;5012243;28;20164;-84
2021/05/18 11:12:05;;;;;;;6.45;4.57;;;15.20;81.10;;;;;;5012005;28;20057;-85
2021/05/18 11:14:35;;;;;;;7.53;4.72;;;15.30;81.60;;;;;;5012073;28;20045;-85
2021/05/18 11:17:12;;;;;;;6.78;4.57;;;15.30;81.10;;;;;;5012784;28;20046;-84
2021/05/18 11:19:59;;;;;;;7.47;4.30;;;15.40;79.50;;;;;;5012903;28;20468;-85
2021/05/18 11:25:11;;;;;;;6.95;4.97;;;15.40;80.90;;;;;;5012367;28;20045;-84
2021/05/18 11:27:38;;;;;;;7.30;5.18;;;15.50;80.90;;;;;;5011955;28;20046;-84
2021/05/18 11:30:06;;;;;;;6.72;4.40;;;15.50;82.10;;;;;;5012246;28;20049;-84
2021/05/18 11:32:32;;;;;;;7.75;4.70;;;15.50;82.70;;;;;;4993356;28;20046;-84
2021/05/18 11:35:05;;;;;;;7.50;4.55;;;15.50;83.30;;;;;;4997976;28;20457;-85
2021/05/18 11:37:31;;;;;;;7.85;5.50;;;15.50;82.20;;;;;;5012771;28;20041;-85
2021/05/18 11:40:15;;;;;;;6.97;4.50;;;15.50;84.00;;;;;;5012307;28;20049;-84
2021/05/18 11:42:42;;;;;;;6.95;4.90;;;15.50;84.40;;;;;;5012092;28;20127;-88
2021/05/18 11:45:14;;;;;;;6.68;4.28;;;15.50;85.20;;;;;;5012912;28;20053;-89
2021/05/18 11:47:41;;;;;;;7.25;4.72;;;15.60;85.90;;;;;;5013025;28;20462;-89
2021/05/18 11:50:18;;;;;;;5.85;4.50;;;15.50;86.50;;;;;;5012333;28;20068;-90
2021/05/18 11:52:43;;;;;;;7.28;4.68;;;15.60;87.30;;;;;;5013098;28;20052;-88
2021/05/18 11:55:29;;;;;;;6.18;3.13;;;15.60;87.60;;;;;;5011857;28;20136;-88
2021/05/18 11:57:56;;;;;;;6.30;4.40;;;15.60;85.70;;;;;;5012303;28;20054;-87
2021/05/18 12:00:25;;;;;;;6.00;3.72;;;15.60;87.00;;;;;;5012788;28;20201;-86
2021/05/18 12:03:06;;;;;;;6.50;4.28;;;15.60;87.20;;;;;;5011644;28;20045;-85
2021/05/18 12:05:33;;;;;;;6.60;4.28;;;15.60;87.30;;;;;;5012287;28;20057;-84
2021/05/18 12:07:59;;;;;;;5.38;3.45;;;15.60;88.30;;;;;;5012416;28;20057;-85
2021/05/18 12:10:33;;;;;;;5.45;3.75;;;15.60;88.10;;;;;;5010383;28;20413;-83
2021/05/18 12:13:00;;;;;;;5.47;3.28;;;15.60;88.30;;;;;;4992638;28;20069;-84
2021/05/18 12:15:27;;;;;;;5.55;3.78;;;15.60;88.00;;;;;;4992634;28;20521;-83
2021/05/18 12:17:55;;;;;;;6.82;4.05;;;15.50;88.60;;;;;;5004996;28;20414;-83
2021/05/18 12:20:21;;;;;;;4.93;3.25;;;15.50;88.70;;;;;;5012002;28;20054;-84
2021/05/18 12:22:49;;;;;;;5.85;3.72;;;15.50;89.60;;;;;;5016026;28;20054;-84
2021/05/18 12:25:47;;;;;;;5.47;3.80;;;15.40;89.00;;;;;;5014421;28;20046;-84
2021/05/18 12:28:12;;;;;;;6.35;3.78;;;15.40;88.70;;;;;;4971593;28;20073;-84
2021/05/18 12:30:42;;;;;;;5.80;3.80;;;15.40;90.10;;;;;;5014107;28;20762;-84
2021/05/18 12:33:08;;;;;;;5.95;3.78;;;15.40;90.40;;;;;;5015843;28;20053;-84
2021/05/18 12:35:34;;;;;;;5.82;4.32;;;15.40;90.30;;;;;;5015892;28;20042;-84
2021/05/18 12:38:13;;;;;;;5.43;3.80;;;15.30;86.90;;;;;;5015167;28;20129;-84
2021/05/18 12:40:43;;;;;;;7.22;4.47;;;15.20;88.70;;;;;;5015834;28;20403;-85
2021/05/18 12:43:20;;;;;;;6.43;4.20;;;15.20;87.70;;;;;;5015425;28;20104;-84
2021/05/18 12:45:46;;;;;;;6.25;3.97;;;15.20;86.60;;;;;;5014654;28;20058;-86
2021/05/18 12:48:13;;;;;;;5.60;3.67;;;15.30;88.50;;;;;;5014660;28;20050;-86
2021/05/18 12:50:47;;;;;;;5.57;4.15;;;15.30;89.60;;;;;;5015124;28;20564;-87
2021/05/18 12:53:27;;;;;;;6.47;3.88;;;15.30;90.10;;;;;;5014696;28;20042;-86
2021/05/18 12:55:57;;;;;;;6.18;4.50;;;15.30;90.10;;;;;;5015024;28;20053;-89
2021/05/18 12:58:28;;;;;;;6.60;4.18;;;15.30;88.60;;;;;;5014447;28;20062;-85
2021/05/18 13:01:14;;;;;;;6.43;4.47;;;15.30;89.20;;;;;;5014683;28;20057;-87
2021/05/18 13:03:43;;;;;;;6.18;4.60;;;15.30;88.40;;;;;;5015323;28;20408;-85
2021/05/18 13:06:09;;;;;;;6.53;4.53;;;15.30;88.50;;;;;;5012697;28;20140;-84
2021/05/18 13:08:40;;;;;;;6.85;4.78;;;15.30;88.80;;;;;;5012733;28;20046;-86
2021/05/18 13:13:46;;;;;;;5.95;4.45;;;15.40;88.40;;;;;;5014630;28;20095;-86
2021/05/18 13:16:14;;;;;;;6.40;4.10;;;15.50;89.20;;;;;;5014584;28;20890;-88
2021/05/18 13:18:58;;;;;;;6.53;4.68;;;15.50;89.20;;;;;;5013778;28;20050;-89
2021/05/18 13:21:36;;;;;;;6.07;4.43;;;15.50;88.60;;;;;;5008968;28;20174;-87
2021/05/18 13:26:38;;;;;;;6.55;4.60;;;15.60;87.40;;;;;;5014220;28;20100;-89
2021/05/18 13:29:17;;;;;;;6.03;4.35;;;15.60;88.10;;;;;;5015067;28;20065;-86
2021/05/18 13:31:44;;;;;;;6.45;4.88;;;15.70;88.00;;;;;;5014890;28;20050;-85
2021/05/18 13:34:11;;;;;;;6.45;4.80;;;15.80;88.40;;;;;;5014059;28;20068;-85
2021/05/18 13:36:37;;;;;;;8.07;5.57;;;15.80;88.10;;;;;;5014911;28;20038;-86
2021/05/18 13:39:11;;;;;;;5.82;4.55;;;15.90;86.00;;;;;;5013649;28;20137;-87
2021/05/18 13:41:38;;;;;;;6.50;4.95;;;15.90;86.60;;;;;;5014426;28;20069;-87
2021/05/18 13:44:05;;;;;;;8.52;4.90;;;16.00;84.70;;;;;;5014299;28;20493;-85
2021/05/18 13:46:31;;;;;;;7.40;4.53;;;16.00;84.10;;;;;;5014856;28;20046;-85
2021/05/18 13:48:57;;;;;;;10.90;7.53;;;16.00;83.00;;;;;;5013252;28;20498;-89
2021/05/18 13:51:23;;;;;;;8.95;5.70;;;16.10;82.10;;;;;;5014654;28;20076;-87
2021/05/18 13:53:49;;;;;;;7.82;4.80;;;16.10;81.10;;;;;;5013853;28;20502;-87
2021/05/18 13:56:15;;;;;;;7.22;4.50;;;16.10;81.00;;;;;;5013447;28;20050;-88
2021/05/18 13:58:43;;;;;;;7.28;4.50;;;16.20;81.80;;;;;;5012740;28;20062;-87
2021/05/18 14:01:12;;;;;;;7.80;4.78;;;16.30;83.10;;;;;;5013311;28;20072;-87
2021/05/18 14:03:38;;;;;;;6.45;4.82;;;16.30;81.50;;;;;;5013971;28;20050;-87
2021/05/18 14:06:04;;;;;;;5.28;3.58;;;16.30;83.10;;;;;;5014061;28;20104;-87
2021/05/18 14:08:31;;;;;;;6.93;4.00;;;16.30;80.50;;;;;;5014444;28;20057;-87
2021/05/18 14:11:04;;;;;;;5.55;3.40;;;16.30;80.20;;;;;;5012526;28;20571;-88
2021/05/18 14:13:33;;;;;;;5.78;3.53;;;16.40;77.40;;;;;;5014249;28;20154;-88
2021/05/18 14:16:00;;;;;;;7.65;4.57;;;16.40;76.10;;;;;;5012381;28;20046;-87
2021/05/18 14:18:27;;;;;;;6.10;3.65;;;16.50;76.30;;;;;;5014205;28;20649;-87
2021/05/18 14:20:53;;;;;;;5.95;4.25;;;16.50;75.60;;;;;;5013423;28;20061;-87
2021/05/18 14:23:22;;;;;;;6.60;4.38;;;16.50;77.50;;;;;;5013451;28;20105;-86
2021/05/18 14:25:49;;;;;;;6.75;4.40;;;16.50;76.40;;;;;;5013495;28;20108;-86
2021/05/18 14:28:15;;;;;;;5.70;4.00;;;16.60;78.80;;;;;;5013373;28;20054;-86
2021/05/18 14:30:41;;;;;;;5.90;3.80;;;16.60;78.70;;;;;;5012039;28;20046;-86
2021/05/18 14:33:06;;;;;;;5.85;4.07;;;16.50;79.30;;;;;;5013134;28;20046;-86
2021/05/18 14:35:32;;;;;;;7.13;4.65;;;16.50;80.10;;;;;;4995785;28;20103;-86
2021/05/18 14:38:04;;;;;;;6.38;4.47;;;16.60;80.00;;;;;;5012733;28;20540;-86
2021/05/18 14:43:15;;;;;;;6.57;4.43;;;16.60;78.40;;;;;;5012825;28;20107;-86
2021/05/18 14:45:42;;;;;;;7.13;4.65;;;16.60;78.30;;;;;;5013079;28;20057;-86
2021/05/18 14:48:26;;;;;;;6.85;4.53;;;16.60;79.30;;;;;;5013655;28;20046;-85
2021/05/18 14:53:54;;;;;;;7.25;5.30;;;16.70;76.10;;;;;;5013543;28;20474;-83
2021/05/18 14:56:20;;;;;;;7.15;5.05;;;16.70;80.00;;;;;;5012045;28;20069;-84
2021/05/18 14:58:46;;;;;;;7.85;5.35;;;16.70;82.80;;;;;;5010558;28;20120;-86
2021/05/18 15:01:11;;;;;;;6.57;5.28;;;16.80;84.10;;;;;;5011003;28;20485;-86
2021/05/18 15:03:37;;;;;;;8.23;5.30;;;16.80;83.10;;;;;;5011674;28;20481;-87
2021/05/18 15:06:03;;;;;;;6.55;5.00;;;16.80;82.80;;;;;;5010770;28;20045;-82
2021/05/18 15:08:28;;;;;;;7.28;5.18;;;16.90;84.50;;;;;;5011776;28;20053;-82
2021/05/18 15:10:57;;;;;;;6.70;5.57;;;16.90;84.10;;;;;;5010712;28;20050;-87
2021/05/18 15:13:23;;;;;;;7.43;5.30;;;16.90;85.30;;;;;;5011336;28;20401;-84
2021/05/18 15:15:48;;;;;;;7.50;5.05;;;17.00;86.00;;;;;;5013370;28;20062;-83
2021/05/18 15:18:14;;;;;;;9.02;5.85;;;17.00;86.30;;;;;;5013168;28;20402;-86
2021/05/18 15:20:40;;;;;;;6.82;5.43;;;17.10;84.80;;;;;;5012858;28;20490;-85
2021/05/18 15:23:06;;;;;;;7.30;5.45;;;17.10;85.00;;;;;;5013504;28;20046;-86
2021/05/18 15:25:31;;;;;;;7.45;5.70;;;17.10;86.50;;;;;;5013122;28;20046;-83
2021/05/18 15:28:00;;;;;;;6.95;5.38;;;17.10;87.30;;;;;;5012372;28;20046;-83
2021/05/18 15:30:26;;;;;;;7.38;6.22;;;17.10;87.70;;;;;;5021680;22;20567;-87
2021/05/18 15:32:52;;;;;;;8.57;6.20;;;17.20;88.10;;;;;;5035713;28;20144;-89
2021/05/18 15:35:17;;;;;;;8.00;6.15;;;17.20;88.40;;;;;;5032638;28;20049;-87
2021/05/18 15:37:44;;;;;;;6.70;5.72;;;17.20;88.60;;;;;;5034340;28;20053;-92
2021/05/18 15:40:12;;;;;;;6.80;5.53;;;17.20;88.50;;;;;;5032579;28;20049;-93
2021/05/18 15:42:38;;;;;;;7.65;5.68;;;17.30;88.10;;;;;;5034736;28;20198;-91
2021/05/18 15:45:05;;;;;;;8.48;5.63;;;17.30;87.60;;;;;;5032810;28;20546;-91
2021/05/18 15:47:33;;;;;;;6.82;5.55;;;17.30;87.80;;;;;;5040287;28;20472;-90
2021/05/18 15:49:59;;;;;;;7.60;5.63;;;17.30;88.30;;;;;;5032772;28;20049;-91
2021/05/18 15:52:26;;;;;;;7.53;5.97;;;17.30;88.50;;;;;;5047956;28;20486;-91
2021/05/18 15:54:52;;;;;;;6.90;5.97;;;17.40;88.80;;;;;;5052170;28;20048;-88
2021/05/18 15:57:18;;;;;;;9.10;6.15;;;17.40;88.90;;;;;;5038412;28;20053;-87
2021/05/18 15:59:48;;;;;;;8.57;6.00;;;17.40;89.00;;;;;;5053063;28;20056;-86
2021/05/18 16:02:14;;;;;;;8.38;6.38;;;17.40;89.00;;;;;;5052602;28;20477;-86
2021/05/18 16:04:40;;;;;;;7.30;5.93;;;17.40;89.10;;;;;;5044694;28;20425;-85
2021/05/18 16:07:07;;;;;;;8.57;6.03;;;17.50;89.20;;;;;;5047835;28;20040;-86
2021/05/18 16:09:33;;;;;;;7.90;6.05;;;17.40;89.20;;;;;;5044269;28;20041;-86
2021/05/18 16:11:59;;;;;;;8.00;5.55;;;17.50;89.20;;;;;;5036549;28;20053;-89
2021/05/18 16:14:25;;;;;;;7.35;5.72;;;17.50;89.00;;;;;;5038862;28;20053;-89
2021/05/18 16:16:51;;;;;;;8.30;6.38;;;17.40;88.90;;;;;;5056132;28;20080;-89
2021/05/18 16:19:17;;;;;;;7.15;5.55;;;17.40;89.00;;;;;;5051952;28;20076;-89
2021/05/18 16:21:43;;;;;;;8.13;6.18;;;17.40;89.00;;;;;;5043191;28;21211;-89
2021/05/18 16:24:09;;;;;;;11.05;6.10;;;17.40;89.10;;;;;;5038080;28;20099;-88
2021/05/18 16:26:35;;;;;;;8.35;5.90;;;17.40;88.80;;;;;;5045475;28;20053;-88
2021/05/18 16:29:03;;;;;;;8.15;6.18;;;17.40;88.90;;;;;;5042990;28;20080;-88
2021/05/18 16:31:31;;;;;;;7.20;5.90;;;17.40;89.20;;;;;;5041949;28;20056;-88
2021/05/18 16:33:57;;;;;;;10.48;6.30;;;17.30;89.40;;;;;;5022125;28;20449;-91
2021/05/18 16:36:24;;;;;;;7.95;6.15;;;17.30;89.50;;;;;;5037012;28;20045;-88
2021/05/18 16:38:50;;;;;;;8.00;5.95;;;17.30;89.70;;;;;;5035464;28;20498;-87
2021/05/18 16:41:16;;;;;;;8.68;6.57;;;17.30;89.90;;;;;;5040653;28;20216;-88
2021/05/18 16:43:44;;;;;;;8.95;6.70;;;17.20;90.00;;;;;;5035011;28;20052;-87
2021/05/18 16:46:10;;;;;;;9.07;6.72;;;17.20;90.00;;;;;;5036273;28;20083;-88
2021/05/18 16:48:35;;;;;;;9.10;6.45;;;17.20;90.10;;;;;;5036857;28;20052;-89
2021/05/18 16:51:04;;;;;;;7.65;5.53;;;17.10;90.10;;;;;;5035171;28;20057;-88
2021/05/18 16:53:31;;;;;;;8.73;6.53;;;17.10;89.80;;;;;;5035543;28;20444;-88
2021/05/18 16:56:03;;;;;;;7.70;6.28;;;17.10;90.00;;;;;;5035640;28;20053;-88
2021/05/18 16:58:28;;;;;;;7.70;6.10;;;17.00;89.90;;;;;;5034700;28;20061;-88
2021/05/18 17:00:54;;;;;;;7.75;6.00;;;17.00;89.90;;;;;;5035067;28;20460;-88
2021/05/18 17:03:20;;;;;;;7.38;5.78;;;17.00;90.00;;;;;;5035016;28;20048;-88
2021/05/18 17:05:46;;;;;;;7.78;6.22;;;17.10;90.00;;;;;;5034849;28;20045;-88
2021/05/18 17:08:11;;;;;;;8.23;6.03;;;17.10;90.00;;;;;;5034939;28;20049;-88
2021/05/18 17:10:41;;;;;;;6.93;5.85;;;17.00;89.50;;;;;;5035023;28;20103;-88
2021/05/18 17:13:07;;;;;;;8.80;5.90;;;17.00;89.90;;;;;;5034217;28;20520;-88
2021/05/18 17:15:33;;;;;;;8.15;5.55;;;16.90;90.00;;;;;;5035302;28;20061;-88
2021/05/18 17:18:00;;;;;;;7.43;5.82;;;16.90;90.00;;;;;;5034782;28;20046;-89
2021/05/18 17:20:28;;;;;;;7.80;5.85;;;16.90;90.10;;;;;;5034650;28;20053;-88
2021/05/18 17:22:54;;;;;;;8.55;6.50;;;16.90;90.20;;;;;;5035046;28;20042;-88
2021/05/18 17:25:20;;;;;;;8.13;5.93;;;16.90;90.20;;;;;;5035046;28;20489;-88
2021/05/18 17:27:46;;;;;;;7.13;5.85;;;16.90;90.20;;;;;;5034221;28;20490;-88
2021/05/18 17:30:15;;;;;;;8.85;6.35;;;16.90;90.10;;;;;;5034847;28;20056;-88
2021/05/18 17:32:41;;;;;;;8.38;6.57;;;16.80;90.10;;;;;;5034291;28;20053;-88
2021/05/18 17:35:08;;;;;;;7.30;6.20;;;16.90;90.30;;;;;;5034285;28;20087;-88
2021/05/18 17:37:34;;;;;;;7.45;5.68;;;16.80;90.30;;;;;;5034610;28;20064;-89
2021/05/18 17:40:00;;;;;;;8.90;6.20;;;16.80;90.30;;;;;;5033381;28;20062;-88
2021/05/18 17:42:26;;;;;;;8.27;6.55;;;16.80;90.40;;;;;;5032827;28;20045;-88
2021/05/18 17:44:57;;;;;;;8.13;6.15;;;16.80;90.30;;;;;;5041291;28;20378;-88
2021/05/18 17:47:23;;;;;;;7.75;6.25;;;16.70;89.50;;;;;;5043728;28;20052;-89
2021/05/18 17:49:49;;;;;;;8.15;6.20;;;16.70;90.10;;;;;;5042317;28;20430;-89
2021/05/18 17:52:14;;;;;;;8.63;6.18;;;16.70;90.20;;;;;;5037694;28;20152;-88
2021/05/18 17:54:40;;;;;;;7.95;6.30;;;16.70;90.30;;;;;;5032003;28;20486;-88
2021/05/18 17:57:07;;;;;;;8.73;6.15;;;16.70;90.40;;;;;;5034125;28;20052;-88
2021/05/18 17:59:33;;;;;;;8.18;6.32;;;16.70;90.40;;;;;;5031111;28;20053;-89